createdAt,value
2019-05-18T00:01:13.923Z,20.23
2019-05-18T00:03:46.035Z,22.32
2019-05-18T00:06:16.992Z,18.87
2019-05-18T00:08:53.984Z,20.65
2019-05-18T00:11:24.503Z,20.27
2019-05-18T00:13:56.595Z,21.15
2019-05-18T00:16:27.066Z,21.52
2019-05-18T00:18:57.607Z,21.60
2019-05-18T00:21:28.047Z,20.27
2019-05-18T00:23:58.505Z,20.62
2019-05-18T00:26:29.008Z,19.65
2019-05-18T00:28:59.639Z,21.05
2019-05-18T00:31:30.240Z,20.90
2019-05-18T00:34:01.060Z,23.57
2019-05-18T00:36:31.555Z,23.92
2019-05-18T00:39:02.106Z,21.02
2019-05-18T00:41:33.094Z,21.20
2019-05-18T00:44:03.871Z,20.72
2019-05-18T00:46:34.352Z,22.95
2019-05-18T00:49:04.901Z,22.70
2019-05-18T00:51:35.508Z,21.87
2019-05-18T00:54:06.398Z,21.33
2019-05-18T00:56:38.263Z,22.45
2019-05-18T00:59:08.777Z,22.58
2019-05-18T01:01:39.518Z,22.02
2019-05-18T01:04:10.136Z,22.22
2019-05-18T01:06:41.383Z,22.40
2019-05-18T01:09:15.341Z,22.58
2019-05-18T01:11:45.768Z,24.45
2019-05-18T01:14:17.355Z,23.27
2019-05-18T01:16:48.055Z,23.73
2019-05-18T01:19:18.437Z,23.18
2019-05-18T01:21:48.883Z,25.35
2019-05-18T01:24:19.836Z,25.35
2019-05-18T01:26:50.292Z,23.50
2019-05-18T01:29:21.023Z,26.10
2019-05-18T01:31:51.559Z,24.05
2019-05-18T01:34:22.176Z,23.77
2019-05-18T01:39:30.485Z,23.95
2019-05-18T01:42:00.936Z,24.15
2019-05-18T01:44:31.492Z,25.60
2019-05-18T01:47:02.080Z,25.60
2019-05-18T01:49:32.596Z,24.52
2019-05-18T01:52:03.109Z,26.52
2019-05-18T01:54:33.772Z,27.52
2019-05-18T01:57:04.365Z,25.02
2019-05-18T01:59:34.895Z,25.50
2019-05-18T02:02:05.451Z,25.37
2019-05-18T02:04:37.748Z,25.15
2019-05-18T02:07:08.699Z,25.08
2019-05-18T02:09:46.192Z,25.88
2019-05-18T02:12:17.371Z,26.65
2019-05-18T02:14:54.515Z,24.20
2019-05-18T02:17:25.036Z,25.43
2019-05-18T02:19:55.596Z,26.80
2019-05-18T02:22:26.141Z,26.75
2019-05-18T02:24:56.715Z,27.77
2019-05-18T02:27:27.523Z,28.05
2019-05-18T02:29:57.994Z,29.95
2019-05-18T02:32:28.949Z,28.40
2019-05-18T02:34:59.477Z,27.73
2019-05-18T02:37:30.057Z,25.75
2019-05-18T02:40:00.527Z,26.02
2019-05-18T02:42:31.094Z,27.37
2019-05-18T02:45:01.649Z,27.35
2019-05-18T02:47:32.159Z,25.68
2019-05-18T02:50:02.710Z,27.95
2019-05-18T02:52:33.436Z,24.18
2019-05-18T02:55:04.413Z,26.17
2019-05-18T02:57:35.035Z,26.85
2019-05-18T03:00:08.004Z,25.85
2019-05-18T03:02:38.495Z,24.40
2019-05-18T03:05:09.356Z,25.00
2019-05-18T03:07:39.922Z,24.82
2019-05-18T03:10:10.632Z,25.12
2019-05-18T03:15:25.070Z,27.15
2019-05-18T03:17:55.669Z,25.08
2019-05-18T03:20:26.667Z,26.55
2019-05-18T03:22:57.274Z,26.33
2019-05-18T03:25:27.927Z,26.87
2019-05-18T03:27:58.312Z,25.50
2019-05-18T03:30:28.980Z,26.12
2019-05-18T03:32:59.538Z,26.12
2019-05-18T03:35:30.179Z,25.95
2019-05-18T03:38:00.769Z,27.10
2019-05-18T03:40:31.295Z,25.72
2019-05-18T03:43:01.707Z,25.62
2019-05-18T03:45:32.262Z,28.00
2019-05-18T03:48:02.885Z,27.98
2019-05-18T03:50:34.253Z,26.95
2019-05-18T03:53:04.734Z,28.52
2019-05-18T03:55:36.192Z,31.10
2019-05-18T03:58:06.652Z,28.92
2019-05-18T04:00:37.200Z,27.87
2019-05-18T04:03:07.871Z,26.65
2019-05-18T04:05:38.512Z,27.62
2019-05-18T04:08:09.107Z,28.60
2019-05-18T04:10:39.729Z,28.98
2019-05-18T04:13:11.903Z,30.70
2019-05-18T04:15:47.221Z,27.27
2019-05-18T04:18:17.663Z,26.90
2019-05-18T04:20:48.335Z,29.45
2019-05-18T04:23:20.681Z,30.17
2019-05-18T04:25:51.275Z,26.77
2019-05-18T04:28:21.691Z,30.10
2019-05-18T04:30:55.754Z,27.67
2019-05-18T04:33:26.385Z,28.98
2019-05-18T04:35:58.153Z,28.05
2019-05-18T04:38:28.682Z,29.60
2019-05-18T04:40:59.238Z,28.25
2019-05-18T04:43:29.702Z,28.27
2019-05-18T04:46:00.259Z,27.52
2019-05-18T04:48:30.779Z,29.63
2019-05-18T04:51:08.527Z,27.75
2019-05-18T04:53:40.965Z,27.13
2019-05-18T04:56:11.515Z,29.00
2019-05-18T04:58:42.060Z,27.87
2019-05-18T05:01:12.549Z,28.95
2019-05-18T05:03:43.156Z,28.20
2019-05-18T05:06:14.142Z,30.40
2019-05-18T05:08:44.639Z,28.87
2019-05-18T05:11:15.299Z,28.02
2019-05-18T05:13:47.368Z,29.18
2019-05-18T05:16:17.917Z,30.75
2019-05-18T05:18:49.327Z,27.75
2019-05-18T05:21:19.848Z,27.65
2019-05-18T05:23:50.335Z,27.58
2019-05-18T05:26:20.837Z,28.75
2019-05-18T05:29:03.348Z,27.05
2019-05-18T05:31:34.164Z,28.27
2019-05-18T05:34:05.375Z,27.58
2019-05-18T05:36:35.739Z,29.65
2019-05-18T05:39:07.010Z,28.45
2019-05-18T05:41:37.456Z,30.57
2019-05-18T05:44:07.993Z,28.70
2019-05-18T05:46:38.580Z,29.92
2019-05-18T05:49:09.342Z,29.10
2019-05-18T05:51:39.819Z,27.73
2019-05-18T05:54:11.115Z,29.23
2019-05-18T05:56:42.352Z,30.62
2019-05-18T05:59:12.916Z,28.70
2019-05-18T06:01:43.455Z,32.20
2019-05-18T06:04:14.848Z,29.90
2019-05-18T06:06:45.276Z,29.85
2019-05-18T06:09:15.839Z,29.67
2019-05-18T06:11:46.463Z,31.17
2019-05-18T06:17:03.912Z,29.77
2019-05-18T06:19:40.933Z,30.65
2019-05-18T06:22:11.440Z,29.75
2019-05-18T06:24:41.833Z,29.85
2019-05-18T06:27:12.567Z,30.52
2019-05-18T06:29:43.029Z,29.80
2019-05-18T06:32:14.584Z,30.37
2019-05-18T06:34:51.395Z,30.25
2019-05-18T06:37:21.825Z,31.12
2019-05-18T06:39:52.385Z,32.05
2019-05-18T06:42:22.832Z,30.57
2019-05-18T06:44:53.487Z,28.87
2019-05-18T06:47:24.105Z,29.98
2019-05-18T06:50:00.995Z,31.25
2019-05-18T06:52:31.463Z,29.90
2019-05-18T06:55:01.995Z,30.95
2019-05-18T06:57:33.651Z,29.50
2019-05-18T07:00:05.005Z,30.62
2019-05-18T07:02:36.704Z,29.57
2019-05-18T07:05:07.280Z,30.92
2019-05-18T07:07:38.303Z,30.62
2019-05-18T07:10:09.428Z,31.15
2019-05-18T07:12:39.949Z,29.72
2019-05-18T07:15:11.455Z,32.05
2019-05-18T07:17:43.248Z,29.27
2019-05-18T07:20:13.800Z,29.90
2019-05-18T07:22:51.031Z,29.55
2019-05-18T07:25:23.479Z,30.37
2019-05-18T07:27:55.067Z,31.60
2019-05-18T07:30:25.712Z,30.32
2019-05-18T07:32:56.259Z,29.95
2019-05-18T07:35:26.828Z,31.73
2019-05-18T07:37:57.363Z,32.58
2019-05-18T07:40:31.570Z,31.73
2019-05-18T07:43:02.161Z,32.17
2019-05-18T07:45:32.715Z,33.18
2019-05-18T07:48:03.258Z,31.97
2019-05-18T07:50:34.173Z,32.35
2019-05-18T07:53:05.149Z,31.27
2019-05-18T07:55:35.642Z,31.50
2019-05-18T07:58:06.430Z,31.40
2019-05-18T08:00:37.024Z,32.58
2019-05-18T08:03:07.597Z,32.25
2019-05-18T08:05:38.032Z,30.32
2019-05-18T08:08:08.505Z,29.50
2019-05-18T08:10:39.480Z,29.50
2019-05-18T08:13:10.099Z,30.05
2019-05-18T08:15:40.787Z,31.52
2019-05-18T08:18:12.885Z,29.65
2019-05-18T08:20:43.456Z,29.10
2019-05-18T08:23:13.999Z,31.27
2019-05-18T08:25:44.455Z,31.20
2019-05-18T08:28:15.247Z,30.00
2019-05-18T08:30:46.057Z,30.48
2019-05-18T08:33:16.597Z,30.10
2019-05-18T08:35:47.076Z,30.72
2019-05-18T08:38:17.529Z,30.32
2019-05-18T08:40:47.978Z,29.32
2019-05-18T08:43:19.008Z,30.52
2019-05-18T08:45:50.251Z,30.77
2019-05-18T08:48:22.308Z,32.17
2019-05-18T08:50:52.735Z,30.20
2019-05-18T08:53:23.234Z,30.80
2019-05-18T08:55:53.777Z,31.60
2019-05-18T08:58:24.242Z,31.48
2019-05-18T09:00:54.740Z,31.00
2019-05-18T09:03:25.263Z,30.12
2019-05-18T09:05:55.818Z,30.62
2019-05-18T09:08:26.220Z,30.43
2019-05-18T09:10:56.684Z,28.62
2019-05-18T09:13:27.276Z,31.00
2019-05-18T09:15:57.732Z,30.57
2019-05-18T09:18:29.139Z,30.88
2019-05-18T09:20:59.711Z,31.97
2019-05-18T09:23:30.233Z,30.05
2019-05-18T09:26:00.920Z,33.25
2019-05-18T09:28:31.284Z,31.33
2019-05-18T09:31:01.786Z,31.87
2019-05-18T09:36:14.418Z,30.23
2019-05-18T09:38:45.085Z,29.20
2019-05-18T09:41:15.880Z,32.23
2019-05-18T09:43:46.460Z,30.85
2019-05-18T09:46:16.953Z,29.12
2019-05-18T09:48:47.810Z,29.72
2019-05-18T09:51:18.308Z,26.85
2019-05-18T09:53:51.607Z,29.65
2019-05-18T09:56:21.335Z,29.50
2019-05-18T09:58:51.778Z,27.60
2019-05-18T10:01:22.332Z,29.12
2019-05-18T10:03:52.777Z,28.00
2019-05-18T10:06:23.518Z,26.82
2019-05-18T10:08:55.090Z,28.47
2019-05-18T10:11:25.560Z,26.73
2019-05-18T10:13:56.017Z,27.60
2019-05-18T10:16:26.497Z,27.20
2019-05-18T10:18:57.693Z,28.20
2019-05-18T10:21:32.388Z,27.70
2019-05-18T10:24:03.293Z,25.43
2019-05-18T10:26:34.491Z,20.90
2019-05-18T10:29:05.116Z,23.18
2019-05-18T10:31:35.509Z,24.02
2019-05-18T10:34:06.002Z,23.52
2019-05-18T10:36:43.173Z,22.80
2019-05-18T10:39:13.592Z,24.82
2019-05-18T10:41:44.067Z,23.52
2019-05-18T10:44:14.569Z,24.20
2019-05-18T10:46:45.207Z,25.75
2019-05-18T10:49:16.193Z,26.12
2019-05-18T10:51:46.671Z,24.35
2019-05-18T10:54:17.193Z,25.40
2019-05-18T10:56:47.557Z,24.77
2019-05-18T10:59:24.803Z,25.55
2019-05-18T11:01:55.320Z,26.33
2019-05-18T11:04:25.861Z,26.60
2019-05-18T11:06:56.309Z,25.43
2019-05-18T11:09:26.824Z,25.45
2019-05-18T11:11:57.299Z,23.67
2019-05-18T11:14:27.718Z,25.15
2019-05-18T11:16:58.324Z,21.97
2019-05-18T11:19:29.567Z,22.13
2019-05-18T11:22:07.047Z,23.57
2019-05-18T11:24:37.639Z,23.25
2019-05-18T11:27:08.488Z,25.92
2019-05-18T11:29:38.942Z,25.35
2019-05-18T11:32:09.484Z,26.45
2019-05-18T11:34:40.098Z,26.27
2019-05-18T11:37:11.866Z,25.80
2019-05-18T11:39:42.516Z,25.85
2019-05-18T11:42:13.096Z,27.40
2019-05-18T11:44:43.572Z,26.25
2019-05-18T11:47:14.580Z,25.32
2019-05-18T11:49:45.135Z,25.60
2019-05-18T11:52:15.752Z,24.82
2019-05-18T11:54:46.185Z,24.37
2019-05-18T11:57:16.790Z,26.82
2019-05-18T11:59:47.498Z,24.95
2019-05-18T12:02:18.488Z,25.95
2019-05-18T12:04:49.047Z,23.50
2019-05-18T12:07:19.577Z,24.75
2019-05-18T12:09:50.530Z,25.43
2019-05-18T12:12:21.106Z,24.30
2019-05-18T12:14:51.931Z,24.23
2019-05-18T12:17:22.321Z,23.10
2019-05-18T12:19:54.671Z,32.48
2019-05-18T12:22:25.232Z,35.00
2019-05-18T12:24:55.757Z,35.73
2019-05-18T12:27:26.320Z,36.13
2019-05-18T12:30:03.240Z,35.58
2019-05-18T12:32:34.636Z,36.17
2019-05-18T12:37:41.689Z,37.00
2019-05-18T12:40:21.061Z,37.05
2019-05-18T12:42:51.600Z,38.08
2019-05-18T12:45:22.428Z,33.98
2019-05-18T12:47:52.916Z,34.03
2019-05-18T12:50:24.225Z,33.10
2019-05-18T12:52:55.182Z,37.53
2019-05-18T12:55:25.831Z,37.73
2019-05-18T12:57:56.677Z,39.53
2019-05-18T13:00:28.304Z,36.23
2019-05-18T13:02:59.355Z,36.45
2019-05-18T13:05:30.177Z,35.73
2019-05-18T13:08:00.603Z,37.70
2019-05-18T13:10:31.284Z,36.48
2019-05-18T13:13:01.889Z,35.70
2019-05-18T13:15:32.828Z,35.85
2019-05-18T13:18:03.387Z,38.40
2019-05-18T13:20:35.631Z,36.63
2019-05-18T13:23:13.185Z,36.98
2019-05-18T13:25:43.833Z,39.18
2019-05-18T13:28:14.362Z,37.95
2019-05-18T13:30:44.961Z,36.50
2019-05-18T13:33:15.461Z,39.03
2019-05-18T13:35:45.979Z,39.48
2019-05-18T13:38:16.601Z,38.17
2019-05-18T13:40:47.342Z,35.98
2019-05-18T13:43:19.065Z,37.15
2019-05-18T13:45:51.547Z,35.20
2019-05-18T13:48:22.225Z,36.33
2019-05-18T13:50:52.859Z,40.12
2019-05-18T13:53:23.522Z,40.73
2019-05-18T13:55:53.996Z,41.23
2019-05-18T13:58:25.624Z,42.75
2019-05-18T14:00:56.827Z,42.62
2019-05-18T14:03:28.779Z,42.93
2019-05-18T14:05:59.344Z,42.10
2019-05-18T14:08:29.835Z,43.28
2019-05-18T14:11:01.035Z,43.13
2019-05-18T14:13:31.521Z,44.10
2019-05-18T14:16:03.026Z,46.95
2019-05-18T14:18:33.680Z,47.48
2019-05-18T14:21:06.065Z,47.75
2019-05-18T14:23:43.718Z,48.25
2019-05-18T14:26:14.212Z,50.60
2019-05-18T14:31:21.125Z,48.58
2019-05-18T14:33:51.608Z,49.10
2019-05-18T14:36:22.348Z,50.73
2019-05-18T14:38:56.824Z,48.48
2019-05-18T14:41:25.481Z,50.78
2019-05-18T14:43:55.947Z,51.37
2019-05-18T14:46:27.375Z,50.63
2019-05-18T14:48:57.859Z,50.23
2019-05-18T14:51:28.521Z,49.77
2019-05-18T14:53:59.477Z,47.27
2019-05-18T14:56:30.115Z,49.50
2019-05-18T14:59:00.656Z,48.83
2019-05-18T15:01:32.294Z,49.65
2019-05-18T15:04:02.806Z,48.38
2019-05-18T15:06:33.300Z,48.48
2019-05-18T15:09:05.159Z,48.87
2019-05-18T15:11:35.792Z,50.35
2019-05-18T15:14:06.487Z,48.83
2019-05-18T15:16:40.685Z,47.93
2019-05-18T15:19:11.137Z,50.10
2019-05-18T15:21:43.317Z,47.93
2019-05-18T15:24:13.935Z,46.95
2019-05-18T15:26:44.423Z,47.80
2019-05-18T15:29:14.847Z,48.33
2019-05-18T15:34:21.400Z,50.95
2019-05-18T15:36:51.999Z,52.65
2019-05-18T15:39:22.568Z,51.13
2019-05-18T15:41:54.502Z,49.58
2019-05-18T15:44:25.012Z,48.85
2019-05-18T15:46:55.472Z,48.80
2019-05-18T15:49:26.026Z,47.38
2019-05-18T15:51:56.607Z,49.63
2019-05-18T15:54:27.248Z,48.75
2019-05-18T15:56:57.894Z,49.40
2019-05-18T15:59:28.397Z,51.30
2019-05-18T16:01:59.625Z,48.42
2019-05-18T16:04:30.141Z,46.92
2019-05-18T16:07:00.719Z,47.35
2019-05-18T16:09:31.204Z,46.63
2019-05-18T16:12:02.141Z,47.00
2019-05-18T16:14:32.637Z,47.62
2019-05-18T16:17:03.220Z,47.05
2019-05-18T16:19:33.795Z,45.67
2019-05-18T16:22:11.606Z,46.05
2019-05-18T16:24:48.975Z,48.40
2019-05-18T16:27:19.543Z,46.58
2019-05-18T16:29:51.157Z,47.58
2019-05-18T16:32:21.739Z,45.38
2019-05-18T16:34:52.419Z,44.18
2019-05-18T16:37:22.871Z,46.75
2019-05-18T16:39:53.501Z,46.30
2019-05-18T16:42:24.173Z,45.55
2019-05-18T16:44:54.880Z,48.73
2019-05-18T16:47:25.464Z,47.40
2019-05-18T16:49:56.287Z,48.25
2019-05-18T16:52:26.864Z,48.02
2019-05-18T16:54:57.328Z,50.28
2019-05-18T16:57:27.957Z,48.70
2019-05-18T16:59:58.575Z,48.73
2019-05-18T17:02:31.578Z,49.05
2019-05-18T17:05:01.252Z,48.65
2019-05-18T17:07:32.076Z,48.75
2019-05-18T17:10:02.700Z,48.90
2019-05-18T17:12:33.212Z,47.38
2019-05-18T17:15:03.940Z,48.25
2019-05-18T17:17:35.707Z,48.75
2019-05-18T17:20:06.882Z,47.67
2019-05-18T17:22:37.621Z,46.40
2019-05-18T17:25:15.133Z,47.13
2019-05-18T17:27:45.664Z,46.45
2019-05-18T17:30:16.501Z,48.52
2019-05-18T17:32:47.072Z,48.23
2019-05-18T17:35:17.703Z,48.08
2019-05-18T17:37:48.289Z,48.05
2019-05-18T17:40:18.900Z,48.85
2019-05-18T17:42:49.467Z,51.48
2019-05-18T17:45:20.092Z,48.65
2019-05-18T17:47:50.580Z,52.20
2019-05-18T17:50:21.588Z,48.85
2019-05-18T17:52:52.208Z,50.83
2019-05-18T17:55:22.820Z,50.58
2019-05-18T17:57:53.370Z,48.08
2019-05-18T18:00:23.909Z,50.65
2019-05-18T18:02:54.517Z,49.98
2019-05-18T18:05:25.187Z,49.08
2019-05-18T18:07:55.780Z,50.25
2019-05-18T18:10:26.494Z,49.35
2019-05-18T18:12:59.014Z,50.98
2019-05-18T18:15:29.568Z,51.35
2019-05-18T18:18:00.090Z,50.60
2019-05-18T18:20:38.307Z,48.35
2019-05-18T18:23:09.489Z,50.50
2019-05-18T18:25:47.013Z,48.83
2019-05-18T18:28:18.474Z,50.67
2019-05-18T18:30:49.126Z,49.27
2019-05-18T18:33:19.569Z,48.80
2019-05-18T18:35:50.100Z,46.75
2019-05-18T18:38:20.648Z,52.73
2019-05-18T18:40:51.017Z,50.60
2019-05-18T18:43:24.632Z,50.65
2019-05-18T18:45:59.067Z,52.00
2019-05-18T18:48:38.724Z,52.05
2019-05-18T18:51:09.288Z,49.48
2019-05-18T18:53:40.000Z,53.83
2019-05-18T18:56:10.768Z,52.00
2019-05-18T18:58:42.408Z,52.13
2019-05-18T19:01:13.084Z,51.20
2019-05-18T19:03:43.608Z,49.88
2019-05-18T19:06:14.229Z,51.68
2019-05-18T19:08:44.952Z,51.10
2019-05-18T19:11:21.465Z,52.30
2019-05-18T19:13:53.173Z,52.67
2019-05-18T19:16:23.836Z,52.50
2019-05-18T19:18:54.573Z,54.65
2019-05-18T19:21:25.077Z,51.15
2019-05-18T19:23:59.235Z,50.92
2019-05-18T19:26:29.927Z,51.02
2019-05-18T19:29:01.049Z,49.95
2019-05-18T19:31:31.468Z,52.45
2019-05-18T19:34:01.925Z,52.93
2019-05-18T19:36:32.663Z,50.35
2019-05-18T19:39:04.079Z,52.53
2019-05-18T19:44:10.761Z,50.80
2019-05-18T19:46:41.148Z,50.50
2019-05-18T19:49:11.635Z,49.18
2019-05-18T19:51:42.101Z,52.05
2019-05-18T19:54:12.627Z,48.02
2019-05-18T19:56:44.256Z,50.83
2019-05-18T19:59:15.415Z,51.35
2019-05-18T20:01:47.909Z,53.40
2019-05-18T20:04:18.757Z,56.15
2019-05-18T20:06:49.245Z,50.15
2019-05-18T20:09:20.076Z,51.40
2019-05-18T20:11:50.612Z,52.50
2019-05-18T20:14:21.300Z,52.50
2019-05-18T20:16:51.814Z,52.67
2019-05-18T20:19:36.750Z,53.70
2019-05-18T20:21:55.496Z,56.18
2019-05-18T20:24:27.792Z,54.15
2019-05-18T20:26:58.394Z,53.70
2019-05-18T20:29:29.123Z,56.20
2019-05-18T20:31:59.630Z,55.35
2019-05-18T20:34:30.165Z,53.58
2019-05-18T20:37:00.646Z,56.45
2019-05-18T20:39:31.458Z,55.75
2019-05-18T20:42:02.136Z,56.02
2019-05-18T20:44:32.902Z,54.77
2019-05-18T20:47:03.469Z,56.23
2019-05-18T20:49:34.268Z,54.65
2019-05-18T20:52:05.112Z,52.08
2019-05-18T20:54:36.373Z,54.15
2019-05-18T20:57:07.231Z,59.55
2019-05-18T20:59:37.884Z,59.83
2019-05-18T21:02:08.576Z,56.53
2019-05-18T21:04:39.209Z,57.43
2019-05-18T21:07:11.729Z,58.87
2019-05-18T21:09:42.406Z,57.55
2019-05-18T21:12:12.968Z,55.55
2019-05-18T21:14:43.458Z,61.05
2019-05-18T21:17:19.734Z,58.02
2019-05-18T21:19:50.297Z,57.88
2019-05-18T21:22:22.861Z,56.10
2019-05-18T21:27:36.128Z,59.10
2019-05-18T21:30:06.859Z,62.43
2019-05-18T21:35:13.900Z,62.13
2019-05-18T21:37:44.344Z,60.55
2019-05-18T21:40:17.007Z,59.53
2019-05-18T21:42:47.411Z,60.88
2019-05-18T21:45:18.851Z,60.52
2019-05-18T21:47:49.480Z,62.75
2019-05-18T21:50:25.985Z,68.65
2019-05-18T21:52:56.561Z,63.75
2019-05-18T21:55:28.924Z,63.38
2019-05-18T21:57:59.463Z,66.92
2019-05-18T22:00:30.597Z,65.47
2019-05-18T22:03:02.828Z,68.28
2019-05-18T22:05:33.441Z,66.92
2019-05-18T22:08:04.068Z,67.80
2019-05-18T22:10:34.644Z,68.10
2019-05-18T22:13:05.193Z,68.97
2019-05-18T22:15:35.721Z,68.45
2019-05-18T22:18:06.331Z,67.78
2019-05-18T22:20:43.235Z,68.70
2019-05-18T22:23:09.699Z,65.70
2019-05-18T22:25:44.850Z,66.40
2019-05-18T22:28:19.313Z,67.60
2019-05-18T22:33:32.504Z,67.20
2019-05-18T22:36:02.964Z,67.80
2019-05-18T22:38:33.639Z,66.47
2019-05-18T22:41:05.872Z,68.50
2019-05-18T22:43:36.378Z,65.50
2019-05-18T22:46:06.975Z,70.03
2019-05-18T22:48:41.361Z,71.37
2019-05-18T22:51:09.881Z,69.75
2019-05-18T22:53:40.482Z,70.17
2019-05-18T22:56:11.024Z,70.78
2019-05-18T22:58:41.560Z,69.85
2019-05-18T23:01:12.421Z,72.08
2019-05-18T23:03:45.596Z,72.40
2019-05-18T23:06:15.984Z,72.80
2019-05-18T23:08:46.573Z,69.65
2019-05-18T23:11:17.163Z,71.28
2019-05-18T23:13:47.640Z,71.85
2019-05-18T23:16:18.217Z,71.75
2019-05-18T23:18:56.920Z,73.70
2019-05-18T23:21:22.149Z,68.60
2019-05-18T23:23:52.890Z,71.50
2019-05-18T23:26:23.362Z,75.22
2019-05-18T23:28:53.792Z,74.15
2019-05-18T23:31:28.813Z,79.15
2019-05-18T23:33:59.448Z,81.87
2019-05-18T23:36:30.122Z,76.35
2019-05-18T23:39:02.499Z,73.33
2019-05-18T23:41:34.156Z,74.67
2019-05-18T23:44:04.872Z,74.75
2019-05-18T23:46:35.393Z,78.50
2019-05-18T23:49:10.891Z,76.02
2019-05-18T23:51:38.237Z,73.05
2019-05-18T23:54:08.760Z,74.85
2019-05-18T23:56:39.306Z,76.62
2019-05-18T23:59:09.928Z,74.37
